Time;durP1;ratioP1;P1;durP2;ratioP2;P2;SDS_P1;SDS_P2;PMS_P1;PMS_P2;Temp;Humidity;BMP_temperature;BMP_pressure;BME280_temperature;BME280_humidity;BME280_pressure;Samples;Min_cycle;Max_cycle;Signal;HPM_P1;HPM_P2
2022/11/16 00:04:03;;;;;;;6.57;1.70;;;20.10;73.70;;;;;;10519319;28;20127;-29
2022/11/16 00:09:25;;;;;;;2.75;1.58;;;20.10;73.40;;;;;;10529776;28;20487;-31
2022/11/16 00:14:29;;;;;;;1.48;1.13;;;20.10;73.70;;;;;;10526420;28;20436;-28
2022/11/16 00:19:32;;;;;;;5.55;2.40;;;20.10;73.60;;;;;;10523948;28;20040;-30
2022/11/16 00:24:34;;;;;;;1.85;1.25;;;20.00;74.20;;;;;;10526190;28;20093;-39
2022/11/16 00:29:36;;;;;;;3.22;1.48;;;19.70;75.30;;;;;;10531975;28;20047;-35
2022/11/16 00:34:39;;;;;;;2.88;1.92;;;19.80;75.20;;;;;;10530841;28;20047;-33
2022/11/16 00:39:41;;;;;;;2.45;1.73;;;17.60;89.40;;;;;;10530776;28;20064;-31
2022/11/16 00:44:43;;;;;;;4.77;2.40;;;17.10;92.20;;;;;;10533132;28;20059;-29
2022/11/16 00:49:46;;;;;;;2.90;2.40;;;16.90;92.80;;;;;;10537395;28;20494;-28
2022/11/16 00:54:48;;;;;;;3.17;2.45;;;17.30;91.40;;;;;;10539867;28;21748;-31
2022/11/16 00:59:50;;;;;;;3.07;2.10;;;17.30;92.00;;;;;;10541403;28;20052;-31
2022/11/16 01:04:53;;;;;;;3.33;2.53;;;17.40;91.70;;;;;;10539106;28;20134;-29
2022/11/16 01:09:55;;;;;;;4.07;1.52;;;17.30;91.60;;;;;;10535016;28;20064;-30
2022/11/16 01:14:57;;;;;;;2.75;1.55;;;17.60;91.00;;;;;;10545275;28;20048;-30
2022/11/16 01:20:00;;;;;;;3.00;1.38;;;18.60;85.00;;;;;;10539836;28;20077;-29
2022/11/16 01:25:02;;;;;;;1.88;1.02;;;18.50;85.90;;;;;;10541577;28;20052;-29
2022/11/16 01:30:06;;;;;;;2.03;1.23;;;19.10;80.40;;;;;;10538773;28;20032;-31
2022/11/16 01:35:14;;;;;;;6.32;1.20;;;18.80;83.30;;;;;;10536161;28;20135;-32
2022/11/16 01:40:16;;;;;;;1.55;1.10;;;19.30;79.30;;;;;;10539549;28;20048;-32
2022/11/16 01:45:25;;;;;;;2.67;1.40;;;19.50;77.50;;;;;;10532881;28;20132;-30
2022/11/16 01:50:29;;;;;;;6.55;2.00;;;19.60;76.90;;;;;;10530553;28;20091;-29
2022/11/16 01:55:33;;;;;;;2.08;1.02;;;19.70;76.10;;;;;;10530028;28;20097;-30
2022/11/16 02:00:35;;;;;;;3.50;1.20;;;19.50;76.90;;;;;;10532033;28;20036;-29
2022/11/16 02:05:53;;;;;;;1.50;1.05;;;19.50;77.20;;;;;;10535268;28;20060;-29
2022/11/16 02:11:12;;;;;;;1.80;1.00;;;19.50;77.20;;;;;;10525462;28;20054;-29
2022/11/16 02:16:24;;;;;;;1.75;0.85;;;19.50;76.90;;;;;;10524325;28;20067;-24
2022/11/16 02:21:38;;;;;;;1.63;1.10;;;19.00;80.30;;;;;;10524552;28;20085;-28
2022/11/16 02:27:22;;;;;;;3.58;0.98;;;18.50;83.70;;;;;;10530394;28;20072;-30
2022/11/16 02:32:31;;;;;;;4.40;1.20;;;18.80;83.00;;;;;;10523513;28;20080;-30
2022/11/16 02:37:36;;;;;;;3.45;1.00;;;19.00;81.40;;;;;;10521456;28;20070;-28
2022/11/16 02:42:41;;;;;;;3.22;1.10;;;19.10;80.40;;;;;;10520881;28;20043;-30
2022/11/16 02:47:47;;;;;;;2.80;1.27;;;18.60;83.10;;;;;;10529195;28;20051;-31
2022/11/16 02:52:49;;;;;;;2.60;1.27;;;18.40;82.00;;;;;;10528938;28;20101;-31
2022/11/16 02:57:55;;;;;;;1.75;1.10;;;18.60;82.10;;;;;;10531894;28;20056;-34
2022/11/16 03:03:16;;;;;;;8.05;1.70;;;18.80;82.10;;;;;;10522206;28;20048;-32
2022/11/16 03:08:22;;;;;;;3.05;1.15;;;18.70;80.80;;;;;;10530826;28;20048;-31
2022/11/16 03:13:27;;;;;;;2.25;0.93;;;18.90;81.00;;;;;;10529607;28;20569;-30
2022/11/16 03:18:31;;;;;;;2.17;1.10;;;18.90;80.90;;;;;;10528991;28;20048;-29
2022/11/16 03:23:33;;;;;;;2.42;0.95;;;18.40;84.70;;;;;;10530174;28;20113;-29
2022/11/16 03:28:42;;;;;;;1.65;0.82;;;18.60;83.20;;;;;;10531948;28;20051;-31
2022/11/16 03:33:48;;;;;;;1.40;0.70;;;19.00;79.80;;;;;;10539753;28;20044;-30
2022/11/16 03:38:51;;;;;;;1.23;0.90;;;18.30;84.90;;;;;;10538974;28;20427;-32
2022/11/16 03:43:54;;;;;;;1.73;0.90;;;19.20;78.10;;;;;;10538545;28;20097;-28
2022/11/16 03:48:59;;;;;;;2.58;0.70;;;18.80;81.10;;;;;;10531285;28;20044;-28
2022/11/16 03:54:01;;;;;;;2.53;1.25;;;19.20;78.40;;;;;;10535757;28;20044;-31
2022/11/16 03:59:03;;;;;;;2.28;0.90;;;19.30;77.20;;;;;;10536587;28;20087;-27
2022/11/16 04:04:06;;;;;;;1.58;1.15;;;19.10;78.60;;;;;;10538656;28;20068;-27
2022/11/16 04:25:11;;;;;;;1.55;0.82;;;18.80;81.40;;;;;;10545236;28;21232;-29
2022/11/16 04:30:13;;;;;;;4.13;1.13;;;18.80;81.00;;;;;;10534081;28;20480;-28
2022/11/16 04:40:44;;;;;;;2.25;0.80;;;18.60;82.50;;;;;;10534971;28;19924;-34
2022/11/16 04:51:06;;;;;;;1.48;0.95;;;18.30;85.50;;;;;;10533945;28;20048;-28
2022/11/16 04:56:08;;;;;;;3.58;1.17;;;19.00;79.40;;;;;;10540432;28;20140;-30
2022/11/16 05:01:10;;;;;;;4.18;1.05;;;18.20;84.40;;;;;;10538024;28;20076;-29
2022/11/16 05:06:13;;;;;;;2.58;0.90;;;18.70;81.90;;;;;;10533317;28;20160;-29
2022/11/16 05:11:15;;;;;;;2.10;0.73;;;19.30;77.40;;;;;;10530630;28;20048;-33
2022/11/16 05:16:17;;;;;;;0.85;0.40;;;19.20;77.30;;;;;;10535144;28;20074;-28
2022/11/16 05:21:20;;;;;;;3.35;1.00;;;19.30;76.90;;;;;;10542226;28;20066;-33
2022/11/16 05:26:24;;;;;;;1.42;0.70;;;19.20;77.30;;;;;;10546363;28;20039;-33
2022/11/16 05:31:26;;;;;;;1.50;0.75;;;19.10;78.30;;;;;;10548026;28;20094;-29
2022/11/16 05:36:29;;;;;;;1.27;0.60;;;19.30;76.40;;;;;;10535678;28;20056;-29
2022/11/16 05:41:31;;;;;;;1.02;0.70;;;19.10;76.90;;;;;;10543355;28;20047;-28
2022/11/16 05:46:33;;;;;;;1.45;0.75;;;19.30;76.40;;;;;;10549854;28;20062;-35
2022/11/16 05:51:37;;;;;;;1.13;0.68;;;19.00;78.60;;;;;;10546603;28;20044;-34
2022/11/16 05:56:40;;;;;;;1.92;0.80;;;19.30;76.40;;;;;;10530965;28;20109;-30
2022/11/16 06:01:41;;;;;;;1.00;0.70;;;19.30;75.70;;;;;;10531224;28;20067;-27
2022/11/16 06:06:45;;;;;;;1.50;0.75;;;19.30;75.20;;;;;;10526912;28;20574;-30
2022/11/16 06:11:47;;;;;;;1.35;0.65;;;19.50;74.40;;;;;;10529518;28;20079;-29
2022/11/16 06:16:48;;;;;;;3.13;0.73;;;19.60;73.70;;;;;;10527735;28;20549;-29
2022/11/16 06:21:52;;;;;;;4.15;1.17;;;19.60;73.80;;;;;;10527141;28;20093;-29
2022/11/16 06:26:53;;;;;;;1.98;0.57;;;19.50;74.30;;;;;;10517355;28;20481;-28
2022/11/16 06:31:55;;;;;;;2.08;0.50;;;19.30;75.30;;;;;;10526095;28;20450;-33
2022/11/16 06:36:58;;;;;;;1.95;0.82;;;19.30;75.00;;;;;;10529660;28;20048;-32
2022/11/16 06:42:00;;;;;;;5.75;0.60;;;19.50;74.40;;;;;;10529123;28;20047;-33
2022/11/16 06:47:02;;;;;;;3.88;0.55;;;19.40;73.40;;;;;;10526818;28;20567;-31
2022/11/16 06:52:06;;;;;;;4.68;1.00;;;19.50;74.30;;;;;;10529301;28;20051;-33
2022/11/16 06:57:08;;;;;;;2.25;0.70;;;19.40;70.90;;;;;;10529069;28;20075;-32
2022/11/16 07:15:27;;;;;;;2.60;0.77;;;19.50;73.40;;;;;;10485838;27;1411558;-30
2022/11/16 07:20:29;;;;;;;4.50;0.70;;;19.50;73.90;;;;;;10498002;28;20527;-28
2022/11/16 07:25:32;;;;;;;1.77;0.70;;;19.50;74.70;;;;;;10513857;28;20052;-28
2022/11/16 07:30:36;;;;;;;7.00;0.80;;;19.50;74.10;;;;;;10507691;28;20136;-29
2022/11/16 07:35:37;;;;;;;3.55;1.00;;;19.60;73.40;;;;;;10505489;28;20070;-30
2022/11/16 07:40:39;;;;;;;2.30;0.85;;;19.60;73.70;;;;;;10493617;28;20117;-29
2022/11/16 07:45:43;;;;;;;8.07;0.70;;;19.60;73.80;;;;;;10509455;28;20114;-28
2022/11/16 07:50:44;;;;;;;5.80;0.95;;;19.60;73.40;;;;;;10515987;28;20113;-31
2022/11/16 07:55:52;;;;;;;1.45;0.35;;;19.60;73.60;;;;;;10507497;28;20048;-35
2022/11/16 08:01:04;;;;;;;2.70;0.63;;;19.60;74.10;;;;;;10508583;28;20079;-29
2022/11/16 08:06:08;;;;;;;0.83;0.57;;;19.60;74.60;;;;;;10491711;28;20045;-28
2022/11/16 08:11:12;;;;;;;3.13;0.80;;;19.60;74.00;;;;;;10496057;28;20612;-26
2022/11/16 08:16:18;;;;;;;10.05;0.98;;;19.60;73.70;;;;;;10505462;28;20037;-29
2022/11/16 08:21:20;;;;;;;3.28;0.88;;;19.60;73.70;;;;;;10510459;28;20044;-25
2022/11/16 08:26:22;;;;;;;5.00;1.52;;;19.60;73.90;;;;;;10467150;28;20504;-28
2022/11/16 08:31:27;;;;;;;6.03;1.10;;;19.50;71.40;;;;;;10461971;28;20531;-31
2022/11/16 08:36:29;;;;;;;3.20;1.17;;;19.60;74.30;;;;;;10470468;28;20460;-27
2022/11/16 08:41:34;;;;;;;1.15;0.73;;;19.60;73.70;;;;;;10469289;28;20045;-30
2022/11/16 08:46:38;;;;;;;1.70;0.77;;;19.60;74.00;;;;;;10469920;28;20556;-27
2022/11/16 08:51:40;;;;;;;3.72;1.02;;;19.50;74.70;;;;;;10470550;28;20048;-32
2022/11/16 08:56:42;;;;;;;4.72;1.00;;;19.30;70.90;;;;;;10465363;28;20053;-26
2022/11/16 09:01:45;;;;;;;1.52;0.65;;;19.50;74.80;;;;;;10467748;28;20091;-28
2022/11/16 09:06:47;;;;;;;2.13;0.80;;;19.50;75.00;;;;;;10464549;28;20040;-34
2022/11/16 09:11:51;;;;;;;3.50;0.80;;;19.30;75.30;;;;;;10474173;28;20052;-30
2022/11/16 09:16:54;;;;;;;1.30;0.55;;;19.40;75.00;;;;;;10473626;28;20452;-28
2022/11/16 09:21:56;;;;;;;4.18;1.02;;;19.40;74.80;;;;;;10475932;28;20037;-28
2022/11/16 09:27:00;;;;;;;3.58;0.80;;;19.00;76.50;;;;;;10467289;28;20596;-29
2022/11/16 09:32:03;;;;;;;5.22;1.00;;;19.20;76.30;;;;;;10465814;28;20188;-29
2022/11/16 09:37:06;;;;;;;3.38;0.70;;;18.90;75.60;;;;;;10464625;28;20087;-29
2022/11/16 09:42:23;;;;;;;1.98;1.17;;;19.20;75.90;;;;;;10463442;28;20041;-31
2022/11/16 09:47:41;;;;;;;4.93;1.08;;;19.30;75.00;;;;;;10462077;28;20090;-28
2022/11/16 09:52:47;;;;;;;3.85;1.27;;;19.10;74.70;;;;;;10469041;28;20633;-27
2022/11/16 09:57:51;;;;;;;4.13;1.05;;;19.20;75.40;;;;;;10463948;28;20080;-28
2022/11/16 10:03:02;;;;;;;3.85;1.08;;;19.30;75.20;;;;;;10470182;28;20477;-28
2022/11/16 10:08:12;;;;;;;5.95;1.08;;;19.40;74.50;;;;;;10455428;28;20132;-29
2022/11/16 10:13:24;;;;;;;3.45;0.98;;;19.40;74.10;;;;;;10463294;28;20092;-30
2022/11/16 10:18:40;;;;;;;4.90;0.98;;;19.50;74.20;;;;;;10468710;28;20061;-32
2022/11/16 10:23:58;;;;;;;2.28;0.60;;;19.40;74.10;;;;;;10462108;28;20118;-29
2022/11/16 10:29:20;;;;;;;2.63;1.00;;;19.40;74.30;;;;;;10469259;28;20079;-29
2022/11/16 10:34:28;;;;;;;1.52;0.73;;;19.40;74.60;;;;;;10469795;28;20044;-28
2022/11/16 10:39:31;;;;;;;4.97;1.15;;;19.40;74.30;;;;;;10460677;28;20040;-30
2022/11/16 10:44:38;;;;;;;5.68;1.30;;;19.40;74.30;;;;;;10471719;28;20124;-28
2022/11/16 10:49:50;;;;;;;8.50;1.00;;;19.50;74.40;;;;;;10472367;28;20500;-28
2022/11/16 10:54:52;;;;;;;4.80;0.80;;;19.40;74.20;;;;;;10466650;28;20044;-27
2022/11/16 10:59:55;;;;;;;4.05;1.20;;;19.40;74.00;;;;;;10467894;28;20163;-28
2022/11/16 11:05:16;;;;;;;1.98;0.88;;;19.30;74.60;;;;;;10458187;28;20127;-28
2022/11/16 11:10:29;;;;;;;3.75;1.27;;;19.30;74.30;;;;;;10468584;28;20094;-29
2022/11/16 11:15:31;;;;;;;3.33;2.00;;;19.20;75.10;;;;;;10468060;28;20058;-31
2022/11/16 11:20:35;;;;;;;2.92;0.68;;;19.00;76.10;;;;;;10468306;28;20123;-29
2022/11/16 11:25:41;;;;;;;5.43;1.88;;;19.20;74.60;;;;;;10463414;28;20068;-27
2022/11/16 11:30:56;;;;;;;3.00;0.88;;;19.10;75.20;;;;;;10457411;28;20771;-31
2022/11/16 11:36:03;;;;;;;4.05;1.42;;;19.30;74.30;;;;;;10463564;28;20578;-28
2022/11/16 11:41:05;;;;;;;18.70;0.90;;;19.20;74.10;;;;;;10462467;28;20045;-34
2022/11/16 11:46:13;;;;;;;2.83;0.80;;;19.30;74.00;;;;;;10464408;28;20073;-32
2022/11/16 11:51:24;;;;;;;2.35;0.80;;;19.20;73.00;;;;;;10472940;28;20115;-31
2022/11/16 11:56:29;;;;;;;2.75;1.40;;;19.30;72.60;;;;;;10467442;28;20483;-29
2022/11/16 12:02:03;;;;;;;1.45;0.88;;;19.30;73.90;;;;;;10474081;28;20053;-29
2022/11/16 12:07:16;;;;;;;2.60;0.63;;;19.40;72.90;;;;;;10469665;28;20048;-35
2022/11/16 12:12:28;;;;;;;4.05;0.82;;;19.30;73.10;;;;;;10475062;28;20088;-28
2022/11/16 12:17:39;;;;;;;3.47;0.90;;;19.30;72.50;;;;;;10474139;28;20130;-32
2022/11/16 12:23:12;;;;;;;1.60;0.70;;;19.30;72.70;;;;;;10468217;28;20494;-35
2022/11/16 12:28:32;;;;;;;1.70;0.80;;;19.20;73.10;;;;;;10480257;28;20432;-32
2022/11/16 12:33:48;;;;;;;4.30;1.30;;;19.40;71.80;;;;;;10470083;28;20481;-28
2022/11/16 12:39:00;;;;;;;3.70;0.95;;;19.30;72.00;;;;;;10470419;28;20036;-27
2022/11/16 12:44:04;;;;;;;;;;;19.40;72.60;;;;;;10478986;28;20045;-28
2022/11/16 12:49:43;;;;;;;7.60;1.60;;;19.30;72.00;;;;;;10472748;28;19964;-34
2022/11/16 12:55:05;;;;;;;2.05;1.08;;;19.40;73.10;;;;;;10421717;28;20152;-28
2022/11/16 13:00:09;;;;;;;3.38;1.20;;;19.50;72.80;;;;;;10482155;28;20790;-25
2022/11/16 13:05:17;;;;;;;6.13;2.20;;;19.30;72.50;;;;;;10472496;28;20044;-28
2022/11/16 13:10:26;;;;;;;6.35;2.13;;;19.30;74.10;;;;;;10469161;28;20037;-29
2022/11/16 13:15:36;;;;;;;6.72;2.47;;;19.40;75.10;;;;;;10481716;28;20064;-28
2022/11/16 13:20:44;;;;;;;9.85;2.67;;;19.90;79.60;;;;;;10472959;28;20097;-29
2022/11/16 13:25:54;;;;;;;5.38;1.70;;;19.60;76.20;;;;;;10467577;28;20160;-27
2022/11/16 13:31:03;;;;;;;4.93;2.08;;;19.70;74.90;;;;;;10457464;28;20139;-26
2022/11/16 13:36:42;;;;;;;9.73;2.28;;;19.70;74.70;;;;;;10477341;28;20129;-30
2022/11/16 13:41:47;;;;;;;6.75;2.08;;;19.80;75.20;;;;;;10474535;28;20040;-29
2022/11/16 13:46:51;;;;;;;5.03;1.75;;;19.80;74.60;;;;;;10460079;28;20048;-32
2022/11/16 13:51:55;;;;;;;3.45;1.65;;;19.80;74.50;;;;;;10469884;28;20509;-30
2022/11/16 13:57:00;;;;;;;3.85;1.55;;;19.90;74.70;;;;;;10468767;28;20068;-30
2022/11/16 14:02:24;;;;;;;4.18;1.50;;;19.90;74.60;;;;;;10474786;28;20055;-33
2022/11/16 14:07:41;;;;;;;4.78;1.90;;;19.90;74.40;;;;;;10467101;28;20252;-28
2022/11/16 14:12:54;;;;;;;6.15;2.28;;;19.90;74.50;;;;;;10480198;28;20117;-32
2022/11/16 14:17:59;;;;;;;5.65;2.40;;;20.00;74.50;;;;;;10471280;28;20052;-29
2022/11/16 14:23:16;;;;;;;4.68;2.20;;;20.00;74.20;;;;;;10475892;28;20998;-29
2022/11/16 14:28:42;;;;;;;5.47;1.50;;;20.00;74.00;;;;;;10460872;28;20053;-30
2022/11/16 14:33:49;;;;;;;4.90;1.75;;;20.00;73.70;;;;;;10467083;28;20139;-30
2022/11/16 14:38:51;;;;;;;6.38;2.15;;;20.00;73.70;;;;;;10460999;28;20057;-30
2022/11/16 14:43:57;;;;;;;3.72;1.52;;;20.00;73.60;;;;;;10463804;28;20582;-31
2022/11/16 14:49:00;;;;;;;7.35;1.42;;;20.00;73.50;;;;;;10465537;28;20554;-31
2022/11/16 14:54:12;;;;;;;4.43;1.40;;;20.00;73.20;;;;;;10473811;28;20469;-30
2022/11/16 14:59:17;;;;;;;4.03;0.93;;;20.00;73.20;;;;;;10470040;28;20072;-29
2022/11/16 15:04:21;;;;;;;5.22;1.30;;;20.00;73.20;;;;;;10465806;28;20138;-28
2022/11/16 15:09:27;;;;;;;3.80;1.20;;;20.00;73.00;;;;;;10457650;28;20454;-28
2022/11/16 15:14:36;;;;;;;4.63;1.52;;;20.00;73.30;;;;;;10462609;28;20143;-29
2022/11/16 15:19:39;;;;;;;3.53;1.40;;;20.00;73.00;;;;;;10458906;28;20048;-33
2022/11/16 15:24:41;;;;;;;3.25;1.00;;;20.00;72.90;;;;;;10481729;28;20139;-28
2022/11/16 15:29:44;;;;;;;2.33;0.93;;;20.00;72.70;;;;;;10471987;28;20518;-28
2022/11/16 15:34:50;;;;;;;4.65;1.60;;;20.00;72.80;;;;;;10481713;28;20508;-28
2022/11/16 15:39:52;;;;;;;6.32;2.03;;;20.00;72.90;;;;;;10474624;28;20468;-29
2022/11/16 15:44:56;;;;;;;4.60;1.70;;;20.00;73.20;;;;;;10476376;28;20053;-33
2022/11/16 15:49:58;;;;;;;3.53;1.52;;;20.00;72.50;;;;;;10476154;28;20079;-32
2022/11/16 15:55:05;;;;;;;4.60;1.55;;;20.00;72.70;;;;;;10475123;28;20106;-29
2022/11/16 16:00:23;;;;;;;3.83;1.45;;;20.00;72.70;;;;;;10479119;28;20785;-29
2022/11/16 16:05:33;;;;;;;4.22;1.30;;;20.00;72.30;;;;;;10470974;28;20481;-30
2022/11/16 16:10:35;;;;;;;7.38;2.13;;;20.00;72.60;;;;;;10480229;28;20492;-30
2022/11/16 16:15:39;;;;;;;3.88;1.13;;;20.00;72.20;;;;;;10490032;28;20092;-28
2022/11/16 16:20:48;;;;;;;8.88;1.65;;;19.90;72.80;;;;;;10466576;28;20619;-30
2022/11/16 16:25:50;;;;;;;3.97;2.13;;;19.90;73.00;;;;;;10488707;28;20049;-29
2022/11/16 16:30:55;;;;;;;4.30;1.58;;;19.80;73.40;;;;;;10476774;28;20118;-28
2022/11/16 16:35:57;;;;;;;4.03;1.85;;;19.90;72.90;;;;;;10478932;28;20057;-30
2022/11/16 16:41:02;;;;;;;2.95;1.95;;;19.90;72.80;;;;;;10472683;28;20071;-28
2022/11/16 16:46:06;;;;;;;6.63;2.22;;;19.90;72.60;;;;;;10476259;28;20140;-29
2022/11/16 16:51:11;;;;;;;6.22;2.03;;;19.90;72.40;;;;;;10469853;28;20086;-35
2022/11/16 16:56:15;;;;;;;7.15;1.92;;;19.90;72.50;;;;;;10479203;28;20090;-36
2022/11/16 17:01:18;;;;;;;4.80;1.48;;;20.00;72.40;;;;;;10478373;28;20060;-29
2022/11/16 17:06:22;;;;;;;6.22;1.70;;;20.00;72.50;;;;;;10484895;28;20102;-30
2022/11/16 17:11:24;;;;;;;6.35;2.28;;;19.90;71.80;;;;;;10474916;28;20107;-29
2022/11/16 17:16:29;;;;;;;4.07;2.08;;;19.90;72.10;;;;;;10468002;28;20708;-30
2022/11/16 17:21:31;;;;;;;6.03;2.42;;;19.90;71.80;;;;;;10466722;28;20078;-30
2022/11/16 17:26:33;;;;;;;5.57;2.47;;;19.90;72.00;;;;;;10472658;28;20049;-31
2022/11/16 17:31:42;;;;;;;;;;;19.90;71.80;;;;;;10468455;28;20123;-30
2022/11/16 17:36:44;;;;;;;6.03;1.65;;;19.90;72.20;;;;;;10464898;28;19921;-31
2022/11/16 17:41:45;;;;;;;;;;;19.90;72.30;;;;;;10475542;28;20661;-36
2022/11/16 17:46:49;;;;;;;6.85;1.30;;;19.90;72.70;;;;;;10469057;28;19934;-32
2022/11/16 17:51:52;;;;;;;3.38;1.58;;;19.90;72.90;;;;;;10471974;28;20453;-31
2022/11/16 17:56:54;;;;;;;9.10;1.23;;;20.00;72.90;;;;;;10471244;28;20416;-30
2022/11/16 18:01:58;;;;;;;5.97;1.83;;;19.80;73.30;;;;;;10466928;28;20691;-31
2022/11/16 18:07:01;;;;;;;5.07;1.55;;;19.80;73.40;;;;;;10473262;28;20469;-36
2022/11/16 18:12:03;;;;;;;12.45;1.60;;;19.90;74.10;;;;;;10483712;28;20541;-29
2022/11/16 18:17:07;;;;;;;7.90;2.10;;;19.90;73.40;;;;;;10481884;28;20076;-32
2022/11/16 18:22:10;;;;;;;4.13;2.22;;;19.40;76.30;;;;;;10482593;28;20071;-33
2022/11/16 18:27:12;;;;;;;;;;;19.30;77.10;;;;;;10456248;28;20072;-30
2022/11/16 18:32:15;;;;;;;9.80;3.00;;;19.60;75.80;;;;;;10476426;28;20011;-28
2022/11/16 18:37:17;;;;;;;15.20;5.32;;;19.60;76.10;;;;;;10476316;28;20776;-32
2022/11/16 18:42:19;;;;;;;16.25;6.45;;;19.70;75.60;;;;;;10458706;28;20358;-32
2022/11/16 18:47:23;;;;;;;25.27;7.90;;;19.70;75.40;;;;;;10458721;28;20087;-29
2022/11/16 18:52:25;;;;;;;21.92;8.52;;;19.70;75.30;;;;;;10464232;28;20040;-31
2022/11/16 18:57:27;;;;;;;23.65;9.07;;;19.60;75.60;;;;;;10465161;28;20458;-31
2022/11/16 19:02:30;;;;;;;24.98;9.82;;;19.60;75.60;;;;;;10470284;28;20113;-32
2022/11/16 19:07:32;;;;;;;26.92;10.63;;;19.60;75.50;;;;;;10467947;28;20056;-30
2022/11/16 19:12:34;;;;;;;32.38;11.85;;;19.60;75.50;;;;;;10473244;28;20586;-30
2022/11/16 19:17:37;;;;;;;34.42;12.52;;;19.70;75.30;;;;;;10470763;28;20131;-29
2022/11/16 19:22:39;;;;;;;32.00;11.60;;;19.70;75.10;;;;;;10473265;28;20045;-30
2022/11/16 19:27:41;;;;;;;31.67;10.93;;;19.70;75.10;;;;;;10474544;28;20469;-29
2022/11/16 19:32:45;;;;;;;27.13;9.43;;;19.70;75.20;;;;;;10469588;28;20103;-31
2022/11/16 19:37:46;;;;;;;31.50;8.90;;;19.70;75.30;;;;;;10475959;28;20060;-34
2022/11/16 19:42:48;;;;;;;19.33;7.30;;;19.80;75.70;;;;;;10468334;28;20044;-33
2022/11/16 19:47:52;;;;;;;19.15;8.05;;;19.80;75.00;;;;;;10472674;28;20098;-30
2022/11/16 19:52:54;;;;;;;20.92;6.63;;;19.80;75.10;;;;;;10469651;28;20325;-28
2022/11/16 19:57:56;;;;;;;14.68;5.05;;;19.70;74.90;;;;;;10465733;28;20448;-29
2022/11/16 20:02:59;;;;;;;13.98;5.07;;;19.70;74.90;;;;;;10478308;28;20397;-32
2022/11/16 20:08:01;;;;;;;11.52;5.68;;;19.70;75.10;;;;;;10455843;28;20051;-31
2022/11/16 20:13:03;;;;;;;15.07;5.60;;;19.60;74.80;;;;;;10457614;28;20045;-31
2022/11/16 20:18:07;;;;;;;11.18;4.70;;;19.60;75.10;;;;;;10467004;28;20147;-30
2022/11/16 20:23:09;;;;;;;10.65;5.18;;;19.60;75.10;;;;;;10479253;28;20052;-32
2022/11/16 20:28:11;;;;;;;7.90;4.53;;;19.50;75.30;;;;;;10473637;28;20143;-29
2022/11/16 20:33:14;;;;;;;13.15;6.50;;;19.50;75.40;;;;;;10465898;28;20072;-29
2022/11/16 20:38:17;;;;;;;13.98;5.25;;;19.50;75.00;;;;;;10479772;28;20071;-28
2022/11/16 20:43:19;;;;;;;14.85;6.32;;;19.40;75.00;;;;;;10480840;28;20481;-29
2022/11/16 20:48:22;;;;;;;11.57;5.18;;;19.50;75.10;;;;;;10459508;28;20069;-30
2022/11/16 20:53:25;;;;;;;15.80;5.30;;;19.50;74.90;;;;;;10479388;28;20037;-29
2022/11/16 20:58:27;;;;;;;8.02;3.00;;;19.40;74.70;;;;;;10467304;28;20473;-29
2022/11/16 21:03:30;;;;;;;8.93;3.40;;;19.40;74.90;;;;;;10480714;28;20186;-29
2022/11/16 21:08:32;;;;;;;14.05;4.20;;;19.40;74.80;;;;;;10467668;28;20045;-28
2022/11/16 21:18:54;;;;;;;7.25;3.67;;;19.30;75.00;;;;;;10479543;28;20048;-28
2022/11/16 21:23:56;;;;;;;12.35;4.82;;;19.30;75.10;;;;;;10485453;28;20068;-29
2022/11/16 21:29:00;;;;;;;9.45;4.38;;;19.10;75.60;;;;;;10478667;28;20102;-33
2022/11/16 21:34:04;;;;;;;11.13;4.38;;;19.20;75.60;;;;;;10479685;28;20055;-33
2022/11/16 21:39:06;;;;;;;8.05;2.90;;;19.40;74.80;;;;;;10480160;28;20037;-30
2022/11/16 21:44:08;;;;;;;8.93;2.55;;;19.40;74.60;;;;;;10488503;28;20128;-29
2022/11/16 21:49:11;;;;;;;10.35;3.33;;;19.40;75.00;;;;;;10476085;28;20045;-30
2022/11/16 21:54:13;;;;;;;6.30;2.85;;;19.50;74.30;;;;;;10475793;28;20053;-32
2022/11/16 21:59:15;;;;;;;6.18;2.33;;;19.50;74.40;;;;;;10484387;28;20522;-30
2022/11/16 22:09:37;;;;;;;5.75;2.35;;;19.40;74.60;;;;;;10466219;28;20550;-29
2022/11/16 22:14:39;;;;;;;4.30;1.88;;;19.40;74.40;;;;;;10475094;28;20084;-29
2022/11/16 22:19:42;;;;;;;5.37;1.67;;;19.50;74.10;;;;;;10473597;28;20048;-29
2022/11/16 22:24:44;;;;;;;7.70;1.90;;;19.50;74.30;;;;;;10469849;28;20471;-31
2022/11/16 22:29:46;;;;;;;5.90;1.70;;;19.40;74.30;;;;;;10472830;28;20060;-29
2022/11/16 22:34:50;;;;;;;4.97;1.40;;;19.40;74.40;;;;;;10473730;28;20136;-26
2022/11/16 22:39:51;;;;;;;6.63;2.40;;;19.40;74.30;;;;;;10479837;28;20140;-28
2022/11/16 22:44:53;;;;;;;2.45;1.17;;;19.30;74.50;;;;;;10461556;28;20072;-28
2022/11/16 22:49:56;;;;;;;6.07;1.20;;;19.40;74.10;;;;;;10463596;28;20048;-29
2022/11/16 22:54:58;;;;;;;5.97;2.00;;;19.40;74.50;;;;;;10459667;28;20547;-29
2022/11/16 23:00:00;;;;;;;2.67;1.15;;;19.20;75.20;;;;;;10477423;28;20048;-36
2022/11/16 23:05:04;;;;;;;4.43;1.48;;;19.20;74.00;;;;;;10472059;28;20093;-36
2022/11/16 23:10:07;;;;;;;4.82;1.52;;;19.20;75.30;;;;;;10474279;28;20469;-29
2022/11/16 23:31:16;;;;;;;4.05;1.58;;;19.10;76.10;;;;;;10466396;28;20057;-27
2022/11/16 23:36:19;;;;;;;3.10;1.58;;;19.10;75.70;;;;;;10470122;28;20045;-30
2022/11/16 23:46:41;;;;;;;4.13;1.65;;;18.90;76.20;;;;;;10464082;28;20048;-30
2022/11/16 23:51:44;;;;;;;3.38;1.60;;;19.00;76.30;;;;;;10466187;28;20079;-30
2022/11/16 23:56:46;;;;;;;3.22;1.55;;;19.10;75.90;;;;;;10482392;28;20048;-34
